createdAt,value
2018-06-13T00:01:38.267Z,16.85
2018-06-13T00:04:06.605Z,16.76
2018-06-13T00:06:34.818Z,16.82
2018-06-13T00:09:05.790Z,16.76
2018-06-13T00:11:33.926Z,16.73
2018-06-13T00:14:03.095Z,16.70
2018-06-13T00:16:31.439Z,16.75
2018-06-13T00:18:59.729Z,16.77
2018-06-13T00:21:27.959Z,16.67
2018-06-13T00:23:56.722Z,16.67
2018-06-13T00:26:25.361Z,16.64
2018-06-13T00:28:53.554Z,16.67
2018-06-13T00:31:21.842Z,16.69
2018-06-13T00:33:50.034Z,16.62
2018-06-13T00:36:18.111Z,16.57
2018-06-13T00:38:46.737Z,16.55
2018-06-13T00:41:15.103Z,16.53
2018-06-13T00:43:43.278Z,16.50
2018-06-13T00:46:11.533Z,16.46
2018-06-13T00:48:39.838Z,16.53
2018-06-13T00:51:09.239Z,16.49
2018-06-13T00:53:37.453Z,16.46
2018-06-13T00:56:22.558Z,16.46
2018-06-13T00:58:50.756Z,16.36
2018-06-13T01:01:19.050Z,16.38
2018-06-13T01:03:47.288Z,16.35
2018-06-13T01:06:15.585Z,16.32
2018-06-13T01:08:43.900Z,16.29
2018-06-13T01:11:12.120Z,16.32
2018-06-13T01:13:40.207Z,16.23
2018-06-13T01:16:08.726Z,16.19
2018-06-13T01:18:36.856Z,16.21
2018-06-13T01:21:05.280Z,16.15
2018-06-13T01:23:33.418Z,16.14
2018-06-13T01:26:01.617Z,16.21
2018-06-13T01:28:29.742Z,16.18
2018-06-13T01:30:57.850Z,16.25
2018-06-13T01:33:26.410Z,16.15
2018-06-13T01:35:54.589Z,16.09
2018-06-13T01:38:22.753Z,16.06
2018-06-13T01:40:50.852Z,16.07
2018-06-13T01:43:18.973Z,16.02
2018-06-13T01:45:47.130Z,16.03
2018-06-13T01:48:15.345Z,15.93
2018-06-13T01:51:00.179Z,15.91
2018-06-13T01:53:29.613Z,15.98
2018-06-13T01:55:57.770Z,15.91
2018-06-13T01:58:25.843Z,15.96
2018-06-13T02:00:53.939Z,16.03
2018-06-13T02:03:22.138Z,15.87
2018-06-13T02:05:50.279Z,15.88
2018-06-13T02:08:18.577Z,15.85
2018-06-13T02:10:46.702Z,15.83
2018-06-13T02:13:15.051Z,15.79
2018-06-13T02:15:43.333Z,15.77
2018-06-13T02:18:11.726Z,15.79
2018-06-13T02:20:39.901Z,15.81
2018-06-13T02:23:08.036Z,15.77
2018-06-13T02:25:36.239Z,15.80
2018-06-13T02:28:04.635Z,15.70
2018-06-13T02:30:32.830Z,15.75
2018-06-13T02:33:00.988Z,15.81
2018-06-13T02:35:29.177Z,15.77
2018-06-13T02:37:57.383Z,15.72
2018-06-13T02:40:25.586Z,15.65
2018-06-13T02:42:53.666Z,15.80
2018-06-13T02:45:21.881Z,15.69
2018-06-13T02:47:50.009Z,15.75
2018-06-13T02:50:18.153Z,15.66
2018-06-13T02:52:46.371Z,15.68
2018-06-13T02:55:14.726Z,15.64
2018-06-13T02:57:42.871Z,15.72
2018-06-13T03:00:11.010Z,15.78
2018-06-13T03:02:39.200Z,15.64
2018-06-13T03:05:07.314Z,15.55
2018-06-13T03:07:35.464Z,15.57
2018-06-13T03:10:04.086Z,15.55
2018-06-13T03:12:32.211Z,15.64
2018-06-13T03:15:00.298Z,15.63
2018-06-13T03:17:28.601Z,15.64
2018-06-13T03:19:56.731Z,15.66
2018-06-13T03:22:25.065Z,15.61
2018-06-13T03:24:53.209Z,15.53
2018-06-13T03:27:21.329Z,15.54
2018-06-13T03:29:49.510Z,15.54
2018-06-13T03:32:17.937Z,15.56
2018-06-13T03:34:46.145Z,15.50
2018-06-13T03:37:14.394Z,15.54
2018-06-13T03:39:42.917Z,15.51
2018-06-13T03:42:11.778Z,15.50
2018-06-13T03:44:40.202Z,15.63
2018-06-13T03:47:08.555Z,15.63
2018-06-13T03:49:37.897Z,15.56
2018-06-13T03:52:06.705Z,15.63
2018-06-13T03:54:35.152Z,15.69
2018-06-13T03:57:05.278Z,15.86
2018-06-13T03:59:33.929Z,15.67
2018-06-13T04:02:03.609Z,15.71
2018-06-13T04:04:31.969Z,15.69
2018-06-13T04:07:01.153Z,15.68
2018-06-13T04:09:29.894Z,15.77
2018-06-13T04:11:58.756Z,15.78
2018-06-13T04:14:27.185Z,15.73
2018-06-13T04:16:55.488Z,15.72
2018-06-13T04:19:24.854Z,15.65
2018-06-13T04:21:54.275Z,15.93
2018-06-13T04:24:23.818Z,15.88
2018-06-13T04:26:54.478Z,16.02
2018-06-13T04:29:23.054Z,15.74
2018-06-13T04:31:51.697Z,15.86
2018-06-13T04:34:19.809Z,15.77
2018-06-13T04:36:51.988Z,15.76
2018-06-13T04:39:21.644Z,15.78
2018-06-13T04:41:49.800Z,15.64
2018-06-13T04:44:17.905Z,15.52
2018-06-13T04:46:46.090Z,15.63
2018-06-13T04:49:14.693Z,15.55
2018-06-13T04:51:42.833Z,15.49
2018-06-13T04:54:11.149Z,15.56
2018-06-13T04:56:39.472Z,15.60
2018-06-13T04:59:08.994Z,15.52
2018-06-13T05:01:37.267Z,15.57
2018-06-13T05:04:05.623Z,15.56
2018-06-13T05:06:35.308Z,15.64
2018-06-13T05:09:05.828Z,15.65
2018-06-13T05:11:34.208Z,15.57
2018-06-13T05:14:05.638Z,15.72
2018-06-13T05:16:33.966Z,15.66
2018-06-13T05:19:02.382Z,15.66
2018-06-13T05:21:30.655Z,15.66
2018-06-13T05:23:58.766Z,15.56
2018-06-13T05:26:27.802Z,15.68
2018-06-13T05:28:56.051Z,15.84
2018-06-13T05:31:24.456Z,15.78
2018-06-13T05:33:52.673Z,15.72
2018-06-13T05:36:20.936Z,15.83
2018-06-13T05:38:49.123Z,15.73
2018-06-13T05:41:17.264Z,15.80
2018-06-13T05:43:45.459Z,15.87
2018-06-13T05:46:13.746Z,16.02
2018-06-13T05:48:41.964Z,16.11
2018-06-13T05:51:10.189Z,16.36
2018-06-13T05:53:38.510Z,15.88
2018-06-13T05:56:06.785Z,15.78
2018-06-13T05:58:35.076Z,15.65
2018-06-13T06:01:03.338Z,15.61
2018-06-13T06:03:32.575Z,15.67
2018-06-13T06:06:00.757Z,16.50
2018-06-13T06:08:28.890Z,17.99
2018-06-13T06:10:56.913Z,17.99
2018-06-13T06:13:25.058Z,19.03
2018-06-13T06:15:53.362Z,18.29
2018-06-13T06:18:21.639Z,17.80
2018-06-13T06:20:49.874Z,20.00
2018-06-13T06:23:18.041Z,18.42
2018-06-13T06:25:46.143Z,17.85
2018-06-13T06:28:14.429Z,18.40
2018-06-13T06:30:42.742Z,19.21
2018-06-13T06:33:11.782Z,19.56
2018-06-13T06:35:40.131Z,19.60
2018-06-13T06:38:08.286Z,18.43
2018-06-13T06:40:36.909Z,19.18
2018-06-13T06:43:05.073Z,18.14
2018-06-13T06:45:33.402Z,17.40
2018-06-13T06:48:01.710Z,16.64
2018-06-13T06:50:29.921Z,16.04
2018-06-13T06:52:58.121Z,16.02
2018-06-13T06:55:26.277Z,15.71
2018-06-13T06:57:54.552Z,15.84
2018-06-13T07:00:22.750Z,15.96
2018-06-13T07:02:50.912Z,16.00
2018-06-13T07:05:19.336Z,16.07
2018-06-13T07:07:47.511Z,15.97
2018-06-13T07:10:15.746Z,15.82
2018-06-13T07:12:43.913Z,15.79
2018-06-13T07:15:12.107Z,15.68
2018-06-13T07:17:40.432Z,15.65
2018-06-13T07:20:08.643Z,15.54
2018-06-13T07:22:36.780Z,15.84
2018-06-13T07:25:04.975Z,16.36
2018-06-13T07:27:33.122Z,16.51
2018-06-13T07:30:01.318Z,16.55
2018-06-13T07:32:29.597Z,16.30
2018-06-13T07:34:57.652Z,16.44
2018-06-13T07:37:25.809Z,16.53
2018-06-13T07:39:53.981Z,16.95
2018-06-13T07:42:22.147Z,16.73
2018-06-13T07:44:50.262Z,16.91
2018-06-13T07:47:18.477Z,16.66
2018-06-13T07:49:46.637Z,16.06
2018-06-13T07:52:14.827Z,16.09
2018-06-13T07:54:43.115Z,16.00
2018-06-13T07:57:11.345Z,16.39
2018-06-13T07:59:39.941Z,16.85
2018-06-13T08:02:08.301Z,17.19
2018-06-13T08:04:36.406Z,17.16
2018-06-13T08:07:04.625Z,16.79
2018-06-13T08:09:32.781Z,16.25
2018-06-13T08:12:01.049Z,16.44
2018-06-13T08:14:29.256Z,16.11
2018-06-13T08:16:57.443Z,16.07
2018-06-13T08:19:32.301Z,16.32
2018-06-13T08:22:00.421Z,16.31
2018-06-13T08:24:34.324Z,16.16
2018-06-13T08:27:02.584Z,16.45
2018-06-13T08:29:30.799Z,16.65
2018-06-13T08:31:59.043Z,16.81
2018-06-13T08:34:27.172Z,16.66
2018-06-13T08:36:55.372Z,16.37
2018-06-13T08:39:23.562Z,16.40
2018-06-13T08:41:51.788Z,16.72
2018-06-13T08:44:19.917Z,16.84
2018-06-13T08:46:48.140Z,17.12
2018-06-13T08:49:16.321Z,17.47
2018-06-13T08:51:48.535Z,17.25
2018-06-13T08:54:16.752Z,17.55
2018-06-13T08:56:45.329Z,17.62
2018-06-13T08:59:13.454Z,17.24
2018-06-13T09:01:41.738Z,17.36
2018-06-13T09:04:09.953Z,17.78
2018-06-13T09:06:38.187Z,18.10
2018-06-13T09:09:08.002Z,17.41
2018-06-13T09:11:36.691Z,16.96
2018-06-13T09:14:05.561Z,16.90
2018-06-13T09:16:33.753Z,16.91
2018-06-13T09:19:02.027Z,16.70
2018-06-13T09:21:30.099Z,16.55
2018-06-13T09:23:58.253Z,16.73
2018-06-13T09:26:27.685Z,16.37
2018-06-13T09:28:55.827Z,16.36
2018-06-13T09:31:25.075Z,16.48
2018-06-13T09:33:53.457Z,16.53
2018-06-13T09:36:22.667Z,16.39
2018-06-13T09:38:51.537Z,16.23
2018-06-13T09:41:19.745Z,16.28
2018-06-13T09:43:49.140Z,16.25
2018-06-13T09:46:17.361Z,16.23
2018-06-13T09:48:45.628Z,16.25
2018-06-13T09:51:13.891Z,16.25
2018-06-13T09:53:42.067Z,16.09
2018-06-13T09:56:10.285Z,16.00
2018-06-13T09:58:43.991Z,16.05
2018-06-13T10:01:17.873Z,15.98
2018-06-13T10:03:46.066Z,16.34
2018-06-13T10:06:14.239Z,16.44
2018-06-13T10:08:42.575Z,16.64
2018-06-13T10:11:10.680Z,16.66
2018-06-13T10:13:38.907Z,16.94
2018-06-13T10:16:07.084Z,17.07
2018-06-13T10:18:35.287Z,17.41
2018-06-13T10:21:03.461Z,17.29
2018-06-13T10:23:31.587Z,17.13
2018-06-13T10:25:59.733Z,16.61
2018-06-13T10:28:27.901Z,16.80
2018-06-13T10:30:56.269Z,16.75
2018-06-13T10:33:24.403Z,16.95
2018-06-13T10:35:53.398Z,17.01
2018-06-13T10:38:21.655Z,16.71
2018-06-13T10:40:49.934Z,17.15
2018-06-13T10:43:18.074Z,17.19
2018-06-13T10:45:46.397Z,16.99
2018-06-13T10:48:14.529Z,17.13
2018-06-13T10:50:42.597Z,17.61
2018-06-13T10:53:10.759Z,17.23
2018-06-13T10:55:38.972Z,16.87
2018-06-13T10:58:07.137Z,17.31
2018-06-13T11:00:35.370Z,17.99
2018-06-13T11:03:03.550Z,17.77
2018-06-13T11:05:31.794Z,17.43
2018-06-13T11:07:59.961Z,17.61
2018-06-13T11:10:28.145Z,18.10
2018-06-13T11:12:56.868Z,18.51
2018-06-13T11:15:25.025Z,17.82
2018-06-13T11:17:53.182Z,18.06
2018-06-13T11:20:21.941Z,18.27
2018-06-13T11:22:50.083Z,17.62
2018-06-13T11:25:18.138Z,17.72
2018-06-13T11:27:46.365Z,18.37
2018-06-13T11:30:14.490Z,18.29
2018-06-13T11:32:42.685Z,18.11
2018-06-13T11:35:10.962Z,17.79
2018-06-13T11:37:39.078Z,17.49
2018-06-13T11:40:07.235Z,17.75
2018-06-13T11:42:35.345Z,17.36
2018-06-13T11:45:03.971Z,17.21
2018-06-13T11:47:32.183Z,17.06
2018-06-13T11:50:01.316Z,17.20
2018-06-13T11:52:29.477Z,17.65
2018-06-13T11:54:57.816Z,18.10
2018-06-13T11:57:25.970Z,18.16
2018-06-13T11:59:54.260Z,18.34
2018-06-13T12:02:22.458Z,18.38
2018-06-13T12:04:50.656Z,17.94
2018-06-13T12:07:18.941Z,17.97
2018-06-13T12:09:47.410Z,18.52
2018-06-13T12:12:15.699Z,17.49
2018-06-13T12:14:44.062Z,17.51
2018-06-13T12:17:12.301Z,17.39
2018-06-13T12:19:40.567Z,17.49
2018-06-13T12:22:08.714Z,17.01
2018-06-13T12:24:36.927Z,16.70
2018-06-13T12:27:05.669Z,16.66
2018-06-13T12:29:33.846Z,16.79
2018-06-13T12:32:02.256Z,17.04
2018-06-13T12:34:30.549Z,17.79
2018-06-13T12:36:58.806Z,17.03
2018-06-13T12:39:27.288Z,17.28
2018-06-13T12:41:59.725Z,17.23
2018-06-13T12:44:27.859Z,17.40
2018-06-13T12:46:56.060Z,17.72
2018-06-13T12:49:24.265Z,17.65
2018-06-13T12:51:52.515Z,17.67
2018-06-13T12:54:20.686Z,17.49
2018-06-13T12:56:48.965Z,18.26
2018-06-13T12:59:17.243Z,18.38
2018-06-13T13:01:45.582Z,18.52
2018-06-13T13:04:13.903Z,17.79
2018-06-13T13:06:42.149Z,17.69
2018-06-13T13:09:12.412Z,17.54
2018-06-13T13:11:41.327Z,17.31
2018-06-13T13:14:09.526Z,17.48
2018-06-13T13:16:37.695Z,17.41
2018-06-13T13:19:06.146Z,17.86
2018-06-13T13:21:34.311Z,17.52
2018-06-13T13:24:02.661Z,17.28
2018-06-13T13:26:30.769Z,17.48
2018-06-13T13:28:59.038Z,17.65
2018-06-13T13:31:27.301Z,17.45
2018-06-13T13:33:55.651Z,17.99
2018-06-13T13:36:23.825Z,17.50
2018-06-13T13:38:52.039Z,17.89
2018-06-13T13:41:20.213Z,17.88
2018-06-13T13:43:48.461Z,18.02
2018-06-13T13:46:16.664Z,17.83
2018-06-13T13:48:44.923Z,18.27
2018-06-13T13:51:13.104Z,18.01
2018-06-13T13:53:41.593Z,18.65
2018-06-13T13:56:10.435Z,17.69
2018-06-13T13:58:38.657Z,17.45
2018-06-13T14:01:06.924Z,17.15
2018-06-13T14:03:35.117Z,17.29
2018-06-13T14:06:03.278Z,17.45
2018-06-13T14:08:31.556Z,17.21
2018-06-13T14:10:59.805Z,17.29
2018-06-13T14:13:28.014Z,17.40
2018-06-13T14:16:00.282Z,17.48
2018-06-13T14:18:28.434Z,17.43
2018-06-13T14:20:56.683Z,17.82
2018-06-13T14:23:24.778Z,17.66
2018-06-13T14:25:53.005Z,17.47
2018-06-13T14:28:21.133Z,17.80
2018-06-13T14:30:49.346Z,17.65
2018-06-13T14:33:17.576Z,17.74
2018-06-13T14:35:46.147Z,17.91
2018-06-13T14:38:15.454Z,17.69
2018-06-13T14:40:43.625Z,18.17
2018-06-13T14:43:12.018Z,18.19
2018-06-13T14:45:40.332Z,18.29
2018-06-13T14:48:08.598Z,18.06
2018-06-13T14:50:36.997Z,17.75
2018-06-13T14:53:05.175Z,17.41
2018-06-13T14:55:38.837Z,17.48
2018-06-13T14:58:07.054Z,17.35
2018-06-13T15:00:35.274Z,17.54
2018-06-13T15:03:03.633Z,17.81
2018-06-13T15:05:31.861Z,17.84
2018-06-13T15:08:00.322Z,17.97
2018-06-13T15:10:28.769Z,18.12
2018-06-13T15:12:57.046Z,18.00
2018-06-13T15:15:25.350Z,18.02
2018-06-13T15:17:53.670Z,18.13
2018-06-13T15:20:22.027Z,17.97
2018-06-13T15:22:50.289Z,18.34
2018-06-13T15:25:19.150Z,18.15
2018-06-13T15:27:47.381Z,17.88
2018-06-13T15:30:15.689Z,18.14
2018-06-13T15:32:43.963Z,18.04
2018-06-13T15:35:12.759Z,17.74
2018-06-13T15:37:41.449Z,18.05
2018-06-13T15:40:09.811Z,18.31
2018-06-13T15:42:38.270Z,17.61
2018-06-13T15:45:06.676Z,17.54
2018-06-13T15:47:34.928Z,17.87
2018-06-13T15:50:03.956Z,17.73
2018-06-13T15:52:32.234Z,17.87
2018-06-13T15:55:00.594Z,17.97
2018-06-13T15:57:28.766Z,17.90
2018-06-13T15:59:56.999Z,17.82
2018-06-13T16:02:25.590Z,17.76
2018-06-13T16:04:54.003Z,17.46
2018-06-13T16:07:22.767Z,17.77
2018-06-13T16:09:51.070Z,17.54
2018-06-13T16:12:19.396Z,17.29
2018-06-13T16:14:47.578Z,17.51
2018-06-13T16:17:16.059Z,17.50
2018-06-13T16:19:44.278Z,17.48
2018-06-13T16:22:13.153Z,17.45
2018-06-13T16:24:41.478Z,17.48
2018-06-13T16:27:09.726Z,17.58
2018-06-13T16:29:37.971Z,17.67
2018-06-13T16:32:06.145Z,17.59
2018-06-13T16:34:34.627Z,17.62
2018-06-13T16:37:02.975Z,17.76
2018-06-13T16:39:31.325Z,17.44
2018-06-13T16:41:59.666Z,17.77
2018-06-13T16:44:27.981Z,17.60
2018-06-13T16:46:56.232Z,17.30
2018-06-13T16:49:24.675Z,17.22
2018-06-13T16:51:54.880Z,17.13
2018-06-13T16:55:41.945Z,17.33
2018-06-13T16:58:10.178Z,17.53
2018-06-13T17:00:38.365Z,17.71
2018-06-13T17:03:06.622Z,17.26
2018-06-13T17:05:35.530Z,17.34
2018-06-13T17:08:08.173Z,17.71
2018-06-13T17:10:36.531Z,17.09
2018-06-13T17:13:04.783Z,17.36
2018-06-13T17:15:33.171Z,17.38
2018-06-13T17:18:01.682Z,17.50
2018-06-13T17:20:30.235Z,17.58
2018-06-13T17:22:58.654Z,17.22
2018-06-13T17:25:27.035Z,17.30
2018-06-13T17:27:55.339Z,17.69
2018-06-13T17:30:23.715Z,17.48
2018-06-13T17:32:52.006Z,17.37
2018-06-13T17:35:20.968Z,17.54
2018-06-13T17:37:49.634Z,17.29
2018-06-13T17:40:17.942Z,17.14
2018-06-13T17:42:46.571Z,17.18
2018-06-13T17:45:15.369Z,17.00
2018-06-13T17:47:44.284Z,17.21
2018-06-13T17:50:14.545Z,17.15
2018-06-13T17:52:43.328Z,17.12
2018-06-13T17:55:11.684Z,17.00
2018-06-13T17:57:40.149Z,17.01
2018-06-13T18:00:08.577Z,16.97
2018-06-13T18:02:37.430Z,16.87
2018-06-13T18:05:06.452Z,16.79
2018-06-13T18:07:35.143Z,16.80
2018-06-13T18:10:04.117Z,16.86
2018-06-13T18:12:33.074Z,16.83
2018-06-13T18:15:01.739Z,16.74
2018-06-13T18:17:30.312Z,16.75
2018-06-13T18:19:59.428Z,16.74
2018-06-13T18:22:27.867Z,16.95
2018-06-13T18:24:56.247Z,16.72
2018-06-13T18:27:24.741Z,16.66
2018-06-13T18:29:53.467Z,16.59
2018-06-13T18:32:21.799Z,16.57
2018-06-13T18:34:50.348Z,16.50
2018-06-13T18:37:18.610Z,16.51
2018-06-13T18:39:47.040Z,16.44
2018-06-13T18:42:15.461Z,16.47
2018-06-13T18:44:43.712Z,16.50
2018-06-13T18:47:12.011Z,16.60
2018-06-13T18:49:40.738Z,16.50
2018-06-13T18:52:09.359Z,16.43
2018-06-13T18:54:37.724Z,16.47
2018-06-13T18:57:06.602Z,16.50
2018-06-13T18:59:35.015Z,16.55
2018-06-13T19:02:03.566Z,16.51
2018-06-13T19:04:31.804Z,16.37
2018-06-13T19:07:00.338Z,16.19
2018-06-13T19:09:29.819Z,16.22
2018-06-13T19:11:58.412Z,16.18
2018-06-13T19:14:26.674Z,16.22
2018-06-13T19:16:55.127Z,16.16
2018-06-13T19:19:24.029Z,16.21
2018-06-13T19:21:52.585Z,15.99
2018-06-13T19:24:20.912Z,15.96
2018-06-13T19:26:49.265Z,15.98
2018-06-13T19:29:17.539Z,15.99
2018-06-13T19:31:45.901Z,16.06
2018-06-13T19:34:14.403Z,16.04
2018-06-13T19:36:42.962Z,16.08
2018-06-13T19:39:11.447Z,16.01
2018-06-13T19:41:39.832Z,15.86
2018-06-13T19:44:08.217Z,15.90
2018-06-13T19:46:36.593Z,15.82
2018-06-13T19:49:04.885Z,15.87
2018-06-13T19:51:33.123Z,15.63
2018-06-13T19:54:06.956Z,15.65
2018-06-13T19:56:35.171Z,15.60
2018-06-13T19:59:03.676Z,15.56
2018-06-13T20:01:32.006Z,15.56
2018-06-13T20:04:05.856Z,15.53
2018-06-13T20:06:36.809Z,15.47
2018-06-13T20:09:08.911Z,15.50
2018-06-13T20:11:37.094Z,15.50
2018-06-13T20:14:11.042Z,15.55
2018-06-13T20:16:53.002Z,15.48
2018-06-13T20:19:26.695Z,15.47
2018-06-13T20:21:56.057Z,15.44
2018-06-13T20:24:24.487Z,15.50
2018-06-13T20:26:58.244Z,15.44
2018-06-13T20:29:31.972Z,15.32
2018-06-13T20:32:00.086Z,15.33
2018-06-13T20:34:28.241Z,15.23
2018-06-13T20:36:56.449Z,15.26
2018-06-13T20:39:24.559Z,15.31
2018-06-13T20:41:52.739Z,15.29
2018-06-13T20:44:20.950Z,15.33
2018-06-13T20:46:49.131Z,15.26
2018-06-13T20:49:17.332Z,15.21
2018-06-13T20:51:45.942Z,15.20
2018-06-13T20:54:14.082Z,15.14
2018-06-13T20:56:42.191Z,15.10
2018-06-13T20:59:10.250Z,15.13
2018-06-13T21:01:38.426Z,15.20
2018-06-13T21:04:06.602Z,15.10
2018-06-13T21:06:34.741Z,15.14
2018-06-13T21:09:03.283Z,15.10
2018-06-13T21:11:31.431Z,15.08
2018-06-13T21:13:59.622Z,15.06
2018-06-13T21:16:27.903Z,15.11
2018-06-13T21:18:56.112Z,15.05
2018-06-13T21:21:24.383Z,15.03
2018-06-13T21:23:52.601Z,15.02
2018-06-13T21:26:20.763Z,15.00
2018-06-13T21:28:53.287Z,14.92
2018-06-13T21:31:21.578Z,14.94
2018-06-13T21:33:50.093Z,14.94
2018-06-13T21:36:18.273Z,14.97
2018-06-13T21:38:46.396Z,14.99
2018-06-13T21:41:14.527Z,14.90
2018-06-13T21:43:42.659Z,14.83
2018-06-13T21:46:10.799Z,14.77
2018-06-13T21:48:39.084Z,14.80
2018-06-13T21:51:07.299Z,14.84
2018-06-13T21:53:35.446Z,14.83
2018-06-13T21:56:03.535Z,14.91
2018-06-13T21:58:31.698Z,14.82
2018-06-13T22:01:00.013Z,14.80
2018-06-13T22:03:28.106Z,14.83
2018-06-13T22:05:56.242Z,14.86
2018-06-13T22:08:24.366Z,14.90
2018-06-13T22:10:53.159Z,14.92
2018-06-13T22:13:21.272Z,14.95
2018-06-13T22:15:49.500Z,14.98
2018-06-13T22:18:18.092Z,15.06
2018-06-13T22:20:46.158Z,15.08
2018-06-13T22:23:14.408Z,15.09
2018-06-13T22:25:42.913Z,15.06
2018-06-13T22:28:11.190Z,15.02
2018-06-13T22:30:39.447Z,15.00
2018-06-13T22:33:07.672Z,14.94
2018-06-13T22:35:35.825Z,14.86
2018-06-13T22:38:04.266Z,14.87
2018-06-13T22:40:32.375Z,14.93
2018-06-13T22:43:00.542Z,14.95
2018-06-13T22:45:28.945Z,14.91
2018-06-13T22:47:57.433Z,14.87
2018-06-13T22:50:25.509Z,14.79
2018-06-13T22:52:53.616Z,14.80
2018-06-13T22:55:21.853Z,14.75
2018-06-13T22:57:49.944Z,14.73
2018-06-13T23:01:06.381Z,14.68
2018-06-13T23:03:34.513Z,14.64
2018-06-13T23:06:03.965Z,14.67
2018-06-13T23:08:33.196Z,14.75
2018-06-13T23:11:01.330Z,14.79
2018-06-13T23:13:29.490Z,14.76
2018-06-13T23:15:58.090Z,14.69
2018-06-13T23:18:27.142Z,14.62
2018-06-13T23:20:55.590Z,14.64
2018-06-13T23:23:23.774Z,14.63
2018-06-13T23:26:10.772Z,14.64
2018-06-13T23:28:38.904Z,14.69
2018-06-13T23:31:07.118Z,14.55
2018-06-13T23:33:35.333Z,14.51
2018-06-13T23:36:13.001Z,14.55
2018-06-13T23:38:46.022Z,14.51
2018-06-13T23:41:15.312Z,14.54
2018-06-13T23:43:44.235Z,14.58
2018-06-13T23:46:13.885Z,14.61
2018-06-13T23:48:46.334Z,14.56
2018-06-13T23:51:15.495Z,14.51
2018-06-13T23:53:44.023Z,14.51
2018-06-13T23:56:13.273Z,14.52
2018-06-13T23:58:41.418Z,14.49
